Time;durP1;ratioP1;P1;durP2;ratioP2;P2;SDS_P1;SDS_P2;PMS_P1;PMS_P2;Temp;Humidity;BMP_temperature;BMP_pressure;BME280_temperature;BME280_humidity;BME280_pressure;Samples;Min_cycle;Max_cycle;Signal;HPM_P1;HPM_P2
2022/07/10 00:02:16;;;;;;;1.20;0.57;;;;;;;17.66;100.00;99020.17;1763955;79;21373;-54
2022/07/10 00:04:43;;;;;;;0.90;0.68;;;;;;;17.68;100.00;99020.91;1761369;80;20991;-52
2022/07/10 00:07:09;;;;;;;1.67;0.70;;;;;;;17.69;100.00;99005.77;1727453;82;20923;-53
2022/07/10 00:09:35;;;;;;;0.93;0.65;;;;;;;17.71;100.00;99009.22;1760194;80;21762;-52
2022/07/10 00:12:02;;;;;;;1.60;0.70;;;;;;;17.69;100.00;99004.94;1758311;80;20889;-54
2022/07/10 00:14:29;;;;;;;2.45;0.68;;;;;;;17.66;100.00;99001.12;1761867;80;20914;-53
2022/07/10 00:16:55;;;;;;;2.58;0.60;;;;;;;17.62;100.00;99002.37;1759985;80;21056;-54
2022/07/10 00:19:22;;;;;;;0.95;0.70;;;;;;;17.57;100.00;98991.88;1756276;80;21069;-53
2022/07/10 00:21:48;;;;;;;1.02;0.60;;;;;;;17.54;100.00;99001.66;1758184;80;21520;-54
2022/07/10 00:24:15;;;;;;;0.80;0.60;;;;;;;17.51;100.00;99003.31;1755605;80;21385;-54
2022/07/10 00:26:42;;;;;;;0.50;0.50;;;;;;;17.51;100.00;99010.12;1719508;82;21019;-54
2022/07/10 00:29:08;;;;;;;1.80;0.60;;;;;;;17.50;100.00;99012.47;1762578;80;21014;-54
2022/07/10 00:31:35;;;;;;;2.15;0.60;;;;;;;17.51;100.00;99014.20;1757533;80;21059;-53
2022/07/10 00:34:01;;;;;;;0.72;0.60;;;;;;;17.53;100.00;99018.12;1762572;80;21282;-53
2022/07/10 00:36:28;;;;;;;0.72;0.60;;;;;;;17.52;100.00;99014.56;1754682;80;21517;-53
2022/07/10 00:38:54;;;;;;;1.10;0.60;;;;;;;17.51;100.00;99015.56;1761473;80;21042;-53
2022/07/10 00:41:21;;;;;;;1.52;0.60;;;;;;;17.49;100.00;99012.11;1762270;80;21052;-56
2022/07/10 00:43:57;;;;;;;0.60;0.40;;;;;;;17.47;100.00;99015.95;1762374;80;21149;-53
2022/07/10 00:46:26;;;;;;;0.42;0.42;;;;;;;17.46;100.00;99016.45;1771926;79;21953;-54
2022/07/10 00:48:53;;;;;;;3.22;0.60;;;;;;;17.46;100.00;99017.80;1768421;80;22120;-54
2022/07/10 00:51:21;;;;;;;1.10;0.57;;;;;;;17.43;100.00;99024.03;1768010;80;21063;-54
2022/07/10 00:53:49;;;;;;;1.00;0.60;;;;;;;17.42;100.00;99018.22;1766908;80;21602;-53
2022/07/10 00:56:21;;;;;;;1.75;0.68;;;;;;;17.39;100.00;99016.13;1768012;79;21034;-54
2022/07/10 00:58:49;;;;;;;0.80;0.60;;;;;;;17.39;100.00;99009.33;1767408;80;21155;-53
2022/07/10 01:01:16;;;;;;;0.65;0.60;;;;;;;17.37;100.00;99009.09;1767927;80;21478;-54
2022/07/10 01:03:45;;;;;;;3.17;0.70;;;;;;;17.33;100.00;99005.80;1767519;80;21081;-53
2022/07/10 01:06:13;;;;;;;0.95;0.65;;;;;;;17.29;100.00;98999.38;1768614;80;21068;-53
2022/07/10 01:08:40;;;;;;;1.65;0.70;;;;;;;17.25;100.00;99006.97;1763481;80;21053;-52
2022/07/10 01:11:08;;;;;;;0.50;0.50;;;;;;;17.21;100.00;98998.70;1703987;82;22177;-52
2022/07/10 01:13:35;;;;;;;1.65;0.50;;;;;;;17.18;100.00;98996.23;1702814;83;21093;-51
2022/07/10 01:16:01;;;;;;;1.05;0.68;;;;;;;17.15;100.00;98996.52;1764050;80;22074;-51
2022/07/10 01:18:27;;;;;;;2.47;0.60;;;;;;;17.14;100.00;98998.88;1765805;79;21051;-53
2022/07/10 01:20:55;;;;;;;1.67;0.50;;;;;;;17.12;100.00;98999.49;1766378;80;21133;-53
2022/07/10 01:23:22;;;;;;;1.05;0.50;;;;;;;17.12;100.00;99001.34;1762037;80;20970;-52
2022/07/10 01:25:49;;;;;;;0.70;0.62;;;;;;;17.09;100.00;98996.20;1759740;80;21057;-52
2022/07/10 01:28:20;;;;;;;1.47;0.60;;;;;;;17.07;100.00;98992.25;1770319;80;21148;-51
2022/07/10 01:30:48;;;;;;;2.10;0.60;;;;;;;17.08;100.00;98987.67;1768052;79;21318;-53
2022/07/10 01:33:14;;;;;;;0.80;0.47;;;;;;;17.05;100.00;98983.36;1761246;80;21563;-54
2022/07/10 01:35:42;;;;;;;1.47;0.50;;;;;;;17.01;100.00;98989.54;1743900;80;21210;-51
2022/07/10 01:38:09;;;;;;;0.90;0.60;;;;;;;16.95;100.00;98975.62;1766785;80;21655;-51
2022/07/10 01:40:35;;;;;;;1.17;0.47;;;;;;;16.88;100.00;98977.16;1763780;80;21114;-52
2022/07/10 01:43:02;;;;;;;0.65;0.47;;;;;;;16.84;100.00;98970.28;1763259;80;21093;-52
2022/07/10 01:45:28;;;;;;;3.72;0.50;;;;;;;16.81;100.00;98974.61;1770561;79;21088;-54
2022/07/10 01:47:56;;;;;;;1.00;0.50;;;;;;;16.77;100.00;98979.92;1740177;80;21460;-53
2022/07/10 01:50:23;;;;;;;1.62;0.47;;;;;;;16.75;100.00;98977.86;1768854;79;21093;-55
2022/07/10 01:52:51;;;;;;;1.85;0.47;;;;;;;16.74;100.00;98976.12;1765522;79;21502;-53
2022/07/10 01:55:17;;;;;;;1.42;0.70;;;;;;;16.73;100.00;98971.19;1766174;79;21076;-56
2022/07/10 01:57:44;;;;;;;0.75;0.50;;;;;;;16.73;100.00;98968.97;1770173;79;21100;-55
2022/07/10 02:00:11;;;;;;;2.98;0.60;;;;;;;16.69;100.00;98968.84;1765310;79;21170;-54
2022/07/10 02:02:40;;;;;;;1.42;0.53;;;;;;;16.68;100.00;98967.12;1764126;79;22501;-54
2022/07/10 02:05:08;;;;;;;1.52;0.60;;;;;;;16.63;100.00;98962.09;1767481;79;21066;-54
2022/07/10 02:07:35;;;;;;;1.07;0.70;;;;;;;16.61;100.00;98969.50;1766008;79;21061;-55
2022/07/10 02:10:01;;;;;;;2.45;0.60;;;;;;;16.57;100.00;98967.53;1728344;81;21447;-55
2022/07/10 02:12:28;;;;;;;0.88;0.60;;;;;;;16.54;100.00;98967.78;1700659;83;21885;-55
2022/07/10 02:14:59;;;;;;;2.77;0.60;;;;;;;16.52;100.00;98957.53;1701206;83;21081;-54
2022/07/10 02:17:23;;;;;;;1.70;0.60;;;;;;;16.49;100.00;98957.81;1710588;82;21086;-53
2022/07/10 02:19:49;;;;;;;3.15;0.80;;;;;;;16.46;100.00;98959.42;1719216;82;21468;-54
2022/07/10 02:22:17;;;;;;;2.20;0.60;;;;;;;16.47;100.00;98963.00;1719330;82;21122;-55
2022/07/10 02:24:44;;;;;;;0.82;0.60;;;;;;;16.46;100.00;98965.34;1712002;82;21256;-55
2022/07/10 02:27:10;;;;;;;1.47;0.78;;;;;;;16.44;100.00;98964.12;1716503;82;21052;-54
2022/07/10 02:29:37;;;;;;;1.70;0.78;;;;;;;16.42;100.00;98959.80;1719481;82;21053;-55
2022/07/10 02:32:05;;;;;;;0.60;0.60;;;;;;;16.39;100.00;98963.66;1713951;82;21619;-54
2022/07/10 02:34:32;;;;;;;1.95;0.70;;;;;;;16.35;100.00;98959.46;1718435;82;21069;-54
2022/07/10 02:36:58;;;;;;;0.60;0.60;;;;;;;16.33;100.00;98955.17;1710666;81;21160;-54
2022/07/10 02:39:25;;;;;;;1.37;0.60;;;;;;;16.32;100.00;98950.23;1714850;82;21073;-55
2022/07/10 02:41:51;;;;;;;1.37;0.72;;;;;;;16.33;100.00;98946.53;1712217;82;21158;-54
2022/07/10 02:44:18;;;;;;;6.17;0.70;;;;;;;16.33;100.00;98943.81;1713481;82;21053;-54
2022/07/10 02:46:44;;;;;;;2.15;0.70;;;;;;;16.33;100.00;98947.89;1692457;82;21110;-55
2022/07/10 02:49:11;;;;;;;0.93;0.70;;;;;;;16.33;100.00;98943.81;1743743;80;21552;-53
2022/07/10 02:51:38;;;;;;;1.15;0.70;;;;;;;16.32;100.00;98946.66;1742588;81;21527;-54
2022/07/10 02:54:04;;;;;;;1.40;0.78;;;;;;;16.31;100.00;98943.56;1742139;80;21096;-54
2022/07/10 02:56:31;;;;;;;2.35;0.70;;;;;;;16.31;100.00;98941.72;1736808;80;21057;-54
2022/07/10 02:58:58;;;;;;;2.65;0.90;;;;;;;16.33;100.00;98941.09;1744373;81;21124;-54
2022/07/10 03:01:25;;;;;;;1.90;1.12;;;;;;;16.35;100.00;98940.45;1737941;80;20997;-54
2022/07/10 03:03:51;;;;;;;4.65;0.90;;;;;;;16.35;100.00;98940.94;1751069;81;20934;-55
2022/07/10 03:06:18;;;;;;;1.30;0.68;;;;;;;16.35;100.00;98936.38;1747261;81;20938;-55
2022/07/10 03:08:44;;;;;;;1.20;0.70;;;;;;;16.38;100.00;98932.55;1742201;80;21555;-54
2022/07/10 03:11:10;;;;;;;1.98;0.80;;;;;;;16.40;100.00;98931.92;1746091;81;20986;-54
2022/07/10 03:13:37;;;;;;;1.00;0.80;;;;;;;16.41;100.00;98930.45;1747322;80;21313;-54
2022/07/10 03:16:04;;;;;;;1.75;0.80;;;;;;;16.44;100.00;98935.59;1745685;80;21422;-54
2022/07/10 03:18:32;;;;;;;2.90;0.72;;;;;;;16.46;100.00;98933.62;1740977;80;20952;-55
2022/07/10 03:20:59;;;;;;;1.67;0.70;;;;;;;16.49;100.00;98933.86;1745180;80;20975;-55
2022/07/10 03:23:26;;;;;;;1.52;0.80;;;;;;;16.51;100.00;98934.56;1747974;80;20887;-54
2022/07/10 03:25:52;;;;;;;1.67;0.90;;;;;;;16.54;100.00;98941.97;1745329;80;21384;-54
2022/07/10 03:28:20;;;;;;;2.20;0.80;;;;;;;16.60;100.00;98946.01;1743622;80;20920;-55
2022/07/10 03:30:47;;;;;;;1.70;0.93;;;;;;;16.64;100.00;98948.38;1742665;80;20961;-54
2022/07/10 03:33:13;;;;;;;3.15;0.62;;;;;;;16.69;100.00;98946.61;1738523;80;20950;-55
2022/07/10 03:35:40;;;;;;;1.42;0.80;;;;;;;16.76;100.00;98949.69;1741730;80;21377;-55
2022/07/10 03:38:07;;;;;;;2.05;0.70;;;;;;;16.78;100.00;98944.47;1739866;80;21815;-53
2022/07/10 03:40:34;;;;;;;0.93;0.82;;;;;;;16.84;100.00;98949.89;1745256;80;21077;-54
2022/07/10 03:43:00;;;;;;;2.27;0.65;;;;;;;16.89;100.00;98953.06;1744230;80;21061;-54
2022/07/10 03:45:27;;;;;;;1.45;0.60;;;;;;;16.92;100.00;98957.75;1749807;80;21319;-53
2022/07/10 03:47:53;;;;;;;0.68;0.60;;;;;;;16.96;100.00;98961.91;1763646;80;21573;-54
2022/07/10 03:50:20;;;;;;;1.75;0.60;;;;;;;17.00;100.00;98961.16;1761931;80;21214;-54
2022/07/10 03:52:46;;;;;;;0.95;0.50;;;;;;;17.03;100.00;98965.81;1762861;80;21652;-53
2022/07/10 03:55:12;;;;;;;0.62;0.60;;;;;;;17.06;100.00;98963.33;1763398;80;21054;-54
2022/07/10 03:58:02;;;;;;;0.60;0.50;;;;;;;17.07;100.00;98962.34;1761420;80;21061;-55
2022/07/10 04:00:26;;;;;;;0.72;0.60;;;;;;;17.07;100.00;98966.91;1761938;80;21070;-54
2022/07/10 04:02:58;;;;;;;1.60;0.60;;;;;;;17.09;100.00;98968.52;1759077;79;21209;-54
2022/07/10 04:05:26;;;;;;;2.50;0.75;;;;;;;17.09;100.00;98954.91;1753202;80;21520;-53
2022/07/10 04:07:52;;;;;;;0.70;0.55;;;;;;;17.11;100.00;98958.84;1756280;80;21030;-54
2022/07/10 04:10:19;;;;;;;0.40;0.40;;;;;;;17.14;100.00;98958.08;1762248;80;21057;-53
2022/07/10 04:12:46;;;;;;;3.98;0.95;;;;;;;17.15;100.00;98966.61;1757452;80;21101;-54
2022/07/10 04:15:13;;;;;;;1.10;0.50;;;;;;;17.11;100.00;98959.70;1760408;80;21238;-54
2022/07/10 04:17:39;;;;;;;1.82;0.55;;;;;;;17.12;100.00;98958.70;1757434;80;21085;-53
2022/07/10 04:20:07;;;;;;;3.33;0.50;;;;;;;17.16;100.00;98956.09;1757327;80;21652;-54
2022/07/10 04:22:34;;;;;;;2.33;0.50;;;;;;;17.20;100.00;98955.31;1759150;80;20961;-55
2022/07/10 04:25:03;;;;;;;0.42;0.40;;;;;;;17.25;100.00;98951.21;1757188;80;21601;-55
2022/07/10 04:27:29;;;;;;;0.70;0.50;;;;;;;17.31;100.00;98945.72;1725380;82;21106;-54
2022/07/10 04:29:56;;;;;;;1.62;0.50;;;;;;;17.32;100.00;98939.28;1759037;80;20958;-55
2022/07/10 04:32:23;;;;;;;0.50;0.50;;;;;;;17.31;100.00;98942.50;1762191;80;21564;-55
2022/07/10 04:34:49;;;;;;;1.52;0.60;;;;;;;17.31;100.00;98945.22;1759325;80;21519;-55
2022/07/10 04:37:16;;;;;;;2.15;0.57;;;;;;;17.32;100.00;98941.51;1760894;80;21061;-55
2022/07/10 04:39:42;;;;;;;1.17;0.50;;;;;;;17.34;100.00;98944.96;1762674;80;21143;-54
2022/07/10 04:42:09;;;;;;;0.55;0.55;;;;;;;17.36;100.00;98938.86;1758107;80;21114;-54
2022/07/10 04:44:36;;;;;;;1.82;0.50;;;;;;;17.40;100.00;98941.69;1757619;80;21023;-53
2022/07/10 04:47:05;;;;;;;0.50;0.50;;;;;;;17.44;100.00;98939.53;1760946;79;21544;-53
2022/07/10 04:49:31;;;;;;;0.65;0.50;;;;;;;17.47;100.00;98935.19;1762179;80;21347;-54
2022/07/10 04:51:58;;;;;;;1.70;0.40;;;;;;;17.52;100.00;98937.52;1758242;80;21511;-54
2022/07/10 04:54:25;;;;;;;0.90;0.50;;;;;;;17.57;100.00;98940.17;1757503;80;21464;-55
2022/07/10 04:56:52;;;;;;;2.65;0.42;;;;;;;17.64;100.00;98935.94;1755944;80;21214;-55
2022/07/10 05:00:08;;;;;;;0.53;0.53;;;;;;;17.78;100.00;98931.95;1779205;78;28995;-56
2022/07/10 05:02:35;;;;;;;0.50;0.50;;;;;;;17.83;100.00;98943.30;1741483;80;21653;-55
2022/07/10 05:05:02;;;;;;;0.60;0.50;;;;;;;17.90;100.00;98937.66;1741480;80;21118;-54
2022/07/10 05:07:30;;;;;;;0.78;0.50;;;;;;;17.98;100.00;98941.04;1744604;80;21036;-55
2022/07/10 05:09:57;;;;;;;1.47;0.40;;;;;;;18.02;100.00;98940.64;1743067;80;21318;-53
2022/07/10 05:12:23;;;;;;;0.70;0.40;;;;;;;18.07;100.00;98935.62;1747521;80;21690;-55
2022/07/10 05:14:50;;;;;;;2.15;0.40;;;;;;;18.10;100.00;98924.95;1718375;81;20972;-56
2022/07/10 05:17:16;;;;;;;1.92;0.40;;;;;;;18.18;100.00;98927.83;1710695;81;21153;-55
2022/07/10 05:19:43;;;;;;;1.75;0.35;;;;;;;18.26;100.00;98928.47;1711809;81;21621;-56
2022/07/10 05:22:10;;;;;;;0.78;0.40;;;;;;;18.31;100.00;98925.67;1713853;81;20965;-55
2022/07/10 05:24:37;;;;;;;1.62;0.40;;;;;;;18.40;100.00;98928.04;1712956;81;21100;-55
2022/07/10 05:27:04;;;;;;;3.12;0.40;;;;;;;18.47;100.00;98924.59;1694976;83;21094;-55
2022/07/10 05:29:31;;;;;;;0.62;0.50;;;;;;;18.53;100.00;98925.41;1697604;83;21422;-54
2022/07/10 05:31:57;;;;;;;1.85;0.47;;;;;;;18.55;100.00;98919.78;1705842;81;21041;-56
2022/07/10 05:34:24;;;;;;;0.60;0.42;;;;;;;18.59;100.00;98921.27;1695214;83;21168;-55
2022/07/10 05:36:52;;;;;;;0.40;0.35;;;;;;;18.64;100.00;98921.68;1695856;83;21035;-55
2022/07/10 05:39:18;;;;;;;2.17;0.50;;;;;;;18.70;100.00;98917.53;1695932;83;21129;-54
2022/07/10 05:41:45;;;;;;;0.55;0.45;;;;;;;18.78;100.00;98923.12;1698759;83;21255;-55
2022/07/10 05:44:12;;;;;;;0.95;0.47;;;;;;;18.86;100.00;98928.20;1701299;83;21075;-54
2022/07/10 05:46:39;;;;;;;1.32;0.50;;;;;;;18.96;100.00;98923.23;1715187;81;21056;-55
2022/07/10 05:49:05;;;;;;;1.12;0.50;;;;;;;19.06;100.00;98922.68;1713734;81;21044;-55
2022/07/10 05:51:32;;;;;;;1.05;0.47;;;;;;;19.16;100.00;98920.29;1709861;81;20966;-56
2022/07/10 05:53:59;;;;;;;1.05;0.40;;;;;;;19.24;100.00;98919.05;1710699;81;21220;-55
2022/07/10 05:56:25;;;;;;;0.50;0.40;;;;;;;19.34;100.00;98917.65;1684778;81;20910;-56
2022/07/10 05:58:55;;;;;;;1.75;0.40;;;;;;;19.44;100.00;98914.89;1682253;83;20919;-56
2022/07/10 06:01:20;;;;;;;0.30;0.30;;;;;;;19.52;100.00;98912.30;1671684;83;21421;-54
2022/07/10 06:03:47;;;;;;;0.80;0.40;;;;;;;19.60;100.00;98909.16;1689842;83;21591;-55
2022/07/10 06:06:15;;;;;;;1.87;0.30;;;;;;;19.69;100.00;98911.49;1659052;84;21604;-53
2022/07/10 06:08:43;;;;;;;1.55;0.40;;;;;;;19.77;100.00;98909.36;1661437;84;20933;-53
2022/07/10 06:11:10;;;;;;;0.45;0.40;;;;;;;19.82;100.00;98919.34;1665463;84;20915;-56
2022/07/10 06:13:37;;;;;;;1.10;0.40;;;;;;;19.85;100.00;98911.69;1655607;84;20887;-55
2022/07/10 06:16:04;;;;;;;2.80;0.50;;;;;;;19.89;100.00;98926.77;1658543;84;21100;-57
2022/07/10 06:18:32;;;;;;;0.70;0.40;;;;;;;19.89;100.00;98917.21;1662635;84;21158;-55
2022/07/10 06:20:59;;;;;;;1.02;0.40;;;;;;;19.91;100.00;98916.53;1659019;84;21077;-55
2022/07/10 06:23:25;;;;;;;0.50;0.30;;;;;;;19.96;100.00;98913.36;1654389;84;21523;-57
2022/07/10 06:25:51;;;;;;;0.47;0.47;;;;;;;19.99;100.00;98913.03;1661008;84;22197;-56
2022/07/10 06:28:18;;;;;;;0.65;0.30;;;;;;;20.00;100.00;98909.28;1658967;84;21559;-57
2022/07/10 06:30:46;;;;;;;1.50;0.47;;;;;;;20.03;100.00;98911.22;1662703;84;21075;-55
2022/07/10 06:33:12;;;;;;;0.62;0.40;;;;;;;20.06;100.00;98912.79;1665870;84;20915;-57
2022/07/10 06:35:39;;;;;;;1.10;0.40;;;;;;;20.05;100.00;98906.97;1670219;84;22295;-55
2022/07/10 06:38:05;;;;;;;1.02;0.50;;;;;;;20.09;100.00;98908.87;1664733;84;21089;-55
2022/07/10 06:40:36;;;;;;;0.82;0.47;;;;;;;20.12;100.00;98905.34;1663167;84;21527;-57
2022/07/10 06:43:03;;;;;;;4.25;0.40;;;;;;;20.15;100.00;98902.81;1658486;84;21577;-55
2022/07/10 06:45:30;;;;;;;0.93;0.50;;;;;;;20.14;100.00;98906.05;1660609;84;21081;-56
2022/07/10 06:47:57;;;;;;;0.65;0.40;;;;;;;20.16;100.00;98908.63;1658280;84;21558;-56
2022/07/10 06:50:26;;;;;;;0.40;0.40;;;;;;;20.20;100.00;98899.95;1659878;84;21126;-56
2022/07/10 06:52:53;;;;;;;0.65;0.40;;;;;;;20.27;100.00;98898.81;1663768;84;21064;-56
2022/07/10 06:55:20;;;;;;;0.50;0.30;;;;;;;20.36;100.00;98903.38;1655681;84;21665;-56
2022/07/10 06:57:47;;;;;;;0.68;0.50;;;;;;;20.49;100.00;98903.00;1661273;84;21101;-56
2022/07/10 07:00:14;;;;;;;1.62;0.50;;;;;;;20.60;100.00;98900.00;1653831;84;21770;-57
2022/07/10 07:02:41;;;;;;;0.50;0.42;;;;;;;20.69;100.00;98908.12;1701443;82;21061;-56
2022/07/10 07:05:08;;;;;;;0.78;0.40;;;;;;;20.76;100.00;98901.50;1693167;82;21042;-54
2022/07/10 07:07:35;;;;;;;0.50;0.50;;;;;;;20.80;100.00;98907.53;1692165;82;21082;-55
2022/07/10 07:10:03;;;;;;;1.30;0.45;;;;;;;20.84;100.00;98902.94;1698865;82;21368;-55
2022/07/10 07:12:31;;;;;;;0.45;0.40;;;;;;;20.90;100.00;98900.95;1701930;82;21809;-55
2022/07/10 07:14:58;;;;;;;1.27;0.50;;;;;;;20.94;100.00;98898.23;1705366;82;21105;-54
2022/07/10 07:17:33;;;;;;;0.50;0.50;;;;;;;20.98;100.00;98891.43;1711808;82;21458;-54
2022/07/10 07:25:27;;;;;;;0.40;0.40;;;;;;;21.03;100.00;98888.20;1663035;84;21443;-57
2022/07/10 07:27:53;;;;;;;0.50;0.40;;;;;;;21.08;100.00;98889.96;1677294;82;21149;-56
2022/07/10 07:30:20;;;;;;;0.88;0.60;;;;;;;21.11;100.00;98892.35;1697764;82;21009;-57
2022/07/10 07:32:47;;;;;;;2.60;0.55;;;;;;;21.12;100.00;98890.83;1702573;82;21202;-57
2022/07/10 07:35:15;;;;;;;0.45;0.40;;;;;;;21.12;100.00;98881.25;1700838;82;21038;-55
2022/07/10 07:37:50;;;;;;;0.60;0.60;;;;;;;21.13;100.00;98880.23;1704787;82;21583;-57
2022/07/10 07:40:22;;;;;;;2.17;0.50;;;;;;;21.15;100.00;98883.67;1696955;82;21598;-56
2022/07/10 07:42:51;;;;;;;0.70;0.40;;;;;;;21.21;100.00;98886.80;1701449;82;22490;-55
2022/07/10 07:45:17;;;;;;;0.65;0.40;;;;;;;21.28;100.00;98886.50;1704186;82;22257;-55
2022/07/10 07:47:53;;;;;;;1.37;0.50;;;;;;;21.38;100.00;98876.30;1701576;82;21082;-55
2022/07/10 07:50:25;;;;;;;0.98;0.50;;;;;;;21.54;100.00;98881.84;1701133;82;21054;-56
2022/07/10 07:52:52;;;;;;;1.45;0.50;;;;;;;21.70;100.00;98885.16;1701652;82;21049;-56
2022/07/10 07:55:19;;;;;;;1.60;0.50;;;;;;;21.81;100.00;98878.02;1646165;85;21085;-57
2022/07/10 07:57:46;;;;;;;0.60;0.50;;;;;;;21.87;100.00;98886.42;1699278;82;21330;-58
2022/07/10 08:00:17;;;;;;;1.45;0.50;;;;;;;21.90;100.00;98883.88;1705110;82;21097;-57
2022/07/10 08:02:44;;;;;;;1.00;0.50;;;;;;;21.89;100.00;98878.05;1716821;82;21041;-56
2022/07/10 08:05:10;;;;;;;0.57;0.50;;;;;;;21.90;100.00;98879.25;1709725;82;21910;-55
2022/07/10 08:07:46;;;;;;;0.62;0.40;;;;;;;21.92;100.00;98885.08;1710954;82;21403;-56
2022/07/10 08:10:15;;;;;;;1.52;0.53;;;;;;;21.91;100.00;98882.85;1712501;82;21670;-54
2022/07/10 08:12:43;;;;;;;0.75;0.42;;;;;;;21.88;100.00;98885.91;1718364;82;21395;-53
2022/07/10 08:15:10;;;;;;;0.70;0.50;;;;;;;21.88;100.00;98887.28;1709736;82;21503;-55
2022/07/10 08:17:39;;;;;;;0.60;0.50;;;;;;;21.90;100.00;98875.14;1712855;82;21097;-54
2022/07/10 08:20:08;;;;;;;0.70;0.40;;;;;;;21.96;100.00;98889.19;1708952;82;21058;-55
2022/07/10 08:22:35;;;;;;;0.50;0.50;;;;;;;22.03;100.00;98880.70;1715975;82;21841;-54
2022/07/10 08:25:03;;;;;;;2.05;0.40;;;;;;;22.09;100.00;98888.25;1712386;82;21474;-56
2022/07/10 08:27:30;;;;;;;2.15;0.40;;;;;;;22.13;100.00;98875.91;1710289;82;21471;-56
2022/07/10 08:29:58;;;;;;;0.50;0.40;;;;;;;22.20;100.00;98875.60;1711559;82;21120;-55
2022/07/10 08:32:26;;;;;;;2.62;0.70;;;;;;;22.28;100.00;98872.87;1706955;82;21644;-56
2022/07/10 08:34:52;;;;;;;1.02;0.50;;;;;;;22.32;100.00;98876.97;1714851;82;21585;-55
2022/07/10 08:37:19;;;;;;;1.32;0.50;;;;;;;22.36;100.00;98874.25;1707468;82;21061;-55
2022/07/10 08:39:46;;;;;;;1.32;0.40;;;;;;;22.43;100.00;98876.65;1711409;82;21096;-56
2022/07/10 08:42:13;;;;;;;0.78;0.50;;;;;;;22.52;100.00;98874.26;1713475;82;21547;-55
2022/07/10 08:44:39;;;;;;;0.60;0.40;;;;;;;22.57;100.00;98874.59;1714015;82;22318;-57
2022/07/10 08:47:06;;;;;;;1.07;0.50;;;;;;;22.63;100.00;98873.90;1710382;82;21168;-56
2022/07/10 08:49:35;;;;;;;1.20;0.40;;;;;;;22.68;100.00;98873.91;1713650;82;22179;-56
2022/07/10 08:52:05;;;;;;;0.80;0.45;;;;;;;22.70;100.00;98874.61;1712210;82;21532;-57
2022/07/10 08:54:33;;;;;;;1.37;0.40;;;;;;;22.70;100.00;98859.00;1716394;82;20906;-55
2022/07/10 08:57:00;;;;;;;0.55;0.40;;;;;;;22.71;100.00;98867.58;1717198;82;21393;-55
2022/07/10 08:59:28;;;;;;;0.50;0.40;;;;;;;22.73;100.00;98861.89;1711978;82;21110;-56
2022/07/10 09:01:54;;;;;;;0.93;0.40;;;;;;;22.71;100.00;98864.84;1702156;82;20924;-55
2022/07/10 09:04:23;;;;;;;0.70;0.40;;;;;;;22.73;100.00;98858.64;1701975;82;20970;-56
2022/07/10 09:06:51;;;;;;;1.92;0.40;;;;;;;22.75;100.00;98861.25;1701628;82;21556;-55
2022/07/10 09:09:17;;;;;;;0.53;0.40;;;;;;;22.76;100.00;98862.45;1702153;82;21360;-56
2022/07/10 09:11:45;;;;;;;0.80;0.40;;;;;;;22.77;100.00;98861.42;1702294;82;21158;-56
2022/07/10 09:14:16;;;;;;;0.65;0.50;;;;;;;22.82;100.00;98867.75;1702390;82;20931;-56
2022/07/10 09:16:45;;;;;;;0.62;0.40;;;;;;;22.86;100.00;98869.14;1704056;82;20991;-56
2022/07/10 09:19:23;;;;;;;0.47;0.30;;;;;;;22.88;100.00;98860.23;1696296;82;20942;-56
2022/07/10 09:22:08;;;;;;;0.70;0.33;;;;;;;22.89;100.00;98860.02;1701705;82;20961;-57
2022/07/10 09:24:45;;;;;;;0.55;0.40;;;;;;;22.92;100.00;98861.06;1695906;82;21263;-56
2022/07/10 09:27:15;;;;;;;0.82;0.40;;;;;;;22.94;100.00;98867.24;1698864;82;21477;-56
2022/07/10 09:29:55;;;;;;;1.02;0.40;;;;;;;22.94;100.00;98859.52;1699689;82;20974;-56
2022/07/10 09:32:20;;;;;;;0.40;0.40;;;;;;;22.95;100.00;98861.23;1699347;82;21314;-55
2022/07/10 09:36:04;;;;;;;0.50;0.37;;;;;;;22.97;100.00;98861.38;1693266;82;21123;-55
2022/07/10 09:37:28;;;;;;;0.78;0.40;;;;;;;22.98;100.00;98863.10;1696951;82;21200;-55
2022/07/10 09:40:06;;;;;;;0.50;0.40;;;;;;;22.96;100.00;98860.21;1697572;82;20903;-56
2022/07/10 09:42:42;;;;;;;0.78;0.30;;;;;;;22.94;100.00;98859.01;1702036;82;21560;-55
2022/07/10 09:45:17;;;;;;;2.95;0.40;;;;;;;22.94;100.00;98859.52;1696460;82;21085;-55
2022/07/10 09:48:02;;;;;;;1.47;0.40;;;;;;;22.96;100.00;98858.33;1696064;82;21472;-56
2022/07/10 09:50:36;;;;;;;0.30;0.30;;;;;;;22.94;100.00;98852.14;1697969;82;21053;-56
2022/07/10 09:53:04;;;;;;;0.50;0.40;;;;;;;22.97;100.00;98850.92;1695292;82;21081;-56
2022/07/10 09:55:34;;;;;;;0.40;0.30;;;;;;;23.07;100.00;98839.75;1692901;82;21089;-55
2022/07/10 09:58:08;;;;;;;0.88;0.30;;;;;;;23.17;100.00;98844.54;1703515;82;21087;-55
2022/07/10 10:00:37;;;;;;;2.02;0.37;;;;;;;23.24;100.00;98843.66;1698011;82;21163;-53
2022/07/10 10:03:09;;;;;;;0.40;0.40;;;;;;;23.28;100.00;98838.68;1700933;82;21136;-55
2022/07/10 10:05:44;;;;;;;1.87;0.45;;;;;;;23.29;100.00;98838.52;1694876;82;21110;-56
2022/07/10 10:08:14;;;;;;;1.15;0.40;;;;;;;23.28;100.00;98844.17;1697281;82;21133;-57
2022/07/10 10:10:47;;;;;;;0.95;0.50;;;;;;;23.24;100.00;98847.77;1697052;82;21045;-56
2022/07/10 10:13:21;;;;;;;0.40;0.40;;;;;;;23.20;100.00;98841.45;1686447;82;21089;-55
2022/07/10 10:15:49;;;;;;;0.47;0.40;;;;;;;23.16;100.00;98841.45;1703273;82;21789;-57
2022/07/10 10:18:19;;;;;;;0.80;0.50;;;;;;;23.11;100.00;98839.25;1698502;82;21101;-56
2022/07/10 10:20:47;;;;;;;0.50;0.30;;;;;;;23.09;100.00;98845.42;1707499;82;21119;-56
2022/07/10 10:23:17;;;;;;;0.53;0.35;;;;;;;23.10;100.00;98840.27;1698060;82;21078;-55
2022/07/10 10:25:44;;;;;;;0.40;0.30;;;;;;;23.14;100.00;98843.54;1667708;84;21148;-57
2022/07/10 10:28:11;;;;;;;1.27;0.40;;;;;;;23.14;100.00;98837.50;1669817;84;21153;-56
2022/07/10 10:30:42;;;;;;;0.68;0.37;;;;;;;23.17;100.00;98841.80;1640807;85;21066;-56
2022/07/10 10:33:44;;;;;;;0.35;0.30;;;;;;;23.18;100.00;98831.16;1641937;85;21108;-56
2022/07/10 10:36:07;;;;;;;0.82;0.40;;;;;;;23.20;100.00;98829.95;1642400;85;21093;-55
2022/07/10 10:38:57;;;;;;;0.35;0.30;;;;;;;23.24;100.00;98829.93;1642585;85;21138;-56
2022/07/10 10:41:47;;;;;;;0.75;0.30;;;;;;;23.30;100.00;98825.64;1642513;85;21511;-58
2022/07/10 10:44:19;;;;;;;0.33;0.28;;;;;;;23.35;100.00;98824.58;1600563;87;21094;-55
2022/07/10 10:46:54;;;;;;;0.50;0.30;;;;;;;23.41;100.00;98819.74;1644043;85;21125;-54
2022/07/10 10:49:22;;;;;;;0.40;0.30;;;;;;;23.46;100.00;98811.84;1697650;82;21498;-55
2022/07/10 10:52:07;;;;;;;0.33;0.30;;;;;;;23.51;100.00;98810.81;1701219;82;21365;-56
2022/07/10 10:55:01;;;;;;;1.07;0.30;;;;;;;23.55;100.00;98808.58;1695374;82;21870;-52
2022/07/10 10:57:44;;;;;;;0.40;0.30;;;;;;;23.54;100.00;98806.34;1640662;85;21127;-55
2022/07/10 11:00:09;;;;;;;0.60;0.30;;;;;;;23.53;100.00;98802.39;1698097;82;22170;-54
2022/07/10 11:02:41;;;;;;;0.40;0.30;;;;;;;23.57;100.00;98799.61;1664660;82;21009;-56
2022/07/10 11:05:22;;;;;;;0.40;0.20;;;;;;;23.60;100.00;98802.02;1716474;82;21172;-56
2022/07/10 11:08:02;;;;;;;0.60;0.30;;;;;;;23.61;100.00;98792.23;1710610;82;21234;-56
2022/07/10 11:10:37;;;;;;;0.50;0.30;;;;;;;23.59;100.00;98790.16;1712984;82;21113;-56
2022/07/10 11:13:12;;;;;;;2.05;0.30;;;;;;;23.59;100.00;98788.80;1714383;82;21404;-56
2022/07/10 11:15:43;;;;;;;0.33;0.30;;;;;;;23.61;100.00;98790.85;1716660;82;21372;-56
2022/07/10 11:18:14;;;;;;;1.15;0.20;;;;;;;23.64;100.00;98798.74;1708542;82;21024;-56
2022/07/10 11:20:46;;;;;;;2.08;0.40;;;;;;;23.68;100.00;98782.73;1712870;82;21162;-56
2022/07/10 11:23:54;;;;;;;0.30;0.30;;;;;;;23.72;100.00;98789.08;1708945;82;21733;-56
2022/07/10 11:26:36;;;;;;;2.33;0.30;;;;;;;23.80;100.00;98784.57;1716874;82;21112;-55
2022/07/10 11:29:06;;;;;;;0.28;0.25;;;;;;;23.84;100.00;98790.88;1712440;82;21388;-56
2022/07/10 11:31:44;;;;;;;0.93;0.30;;;;;;;23.87;100.00;98785.03;1712078;82;21104;-54
2022/07/10 11:34:08;;;;;;;0.40;0.30;;;;;;;23.92;100.00;98791.34;1711079;82;21879;-55
2022/07/10 11:36:37;;;;;;;0.40;0.30;;;;;;;23.97;100.00;98784.28;1710717;82;21049;-56
2022/07/10 11:39:08;;;;;;;0.60;0.20;;;;;;;23.97;100.00;98784.80;1665294;82;21049;-56